createdAt,value
2022-09-14T00:01:47.114Z,7.50
2022-09-14T00:04:51.427Z,9.25
2022-09-14T00:07:53.497Z,10.00
2022-09-14T00:10:55.703Z,6.75
2022-09-14T00:13:58.999Z,8.00
2022-09-14T00:17:01.466Z,7.25
2022-09-14T00:20:03.770Z,7.50
2022-09-14T00:23:06.098Z,9.75
2022-09-14T00:26:15.468Z,9.00
2022-09-14T00:29:18.183Z,10.00
2022-09-14T00:32:20.255Z,9.00
2022-09-14T00:35:22.477Z,8.00
2022-09-14T00:38:26.484Z,9.00
2022-09-14T00:41:32.413Z,9.00
2022-09-14T00:44:34.383Z,9.50
2022-09-14T00:47:36.642Z,8.50
2022-09-14T00:50:39.269Z,9.00
2022-09-14T00:53:41.687Z,10.00
2022-09-14T00:56:46.199Z,10.50
2022-09-14T00:59:52.051Z,9.50
2022-09-14T01:02:54.321Z,10.75
2022-09-14T01:06:24.020Z,10.50
2022-09-14T01:09:44.267Z,10.50
2022-09-14T01:13:27.657Z,10.50
2022-09-14T01:16:53.598Z,10.25
2022-09-14T01:20:14.617Z,9.00
2022-09-14T01:23:54.046Z,11.00
2022-09-14T01:27:13.201Z,9.00
2022-09-14T01:30:20.895Z,10.00
2022-09-14T01:33:29.904Z,9.00
2022-09-14T01:36:34.717Z,11.00
2022-09-14T01:39:38.079Z,10.00
2022-09-14T01:42:41.819Z,6.00
2022-09-14T01:45:50.392Z,8.50
2022-09-14T01:49:23.224Z,11.50
2022-09-14T01:52:35.501Z,11.75
2022-09-14T01:55:44.999Z,10.50
2022-09-14T01:58:50.260Z,10.00
2022-09-14T02:02:04.244Z,13.00
2022-09-14T02:05:16.220Z,10.75
2022-09-14T02:08:18.401Z,15.00
2022-09-14T02:11:20.779Z,15.50
2022-09-14T02:14:23.545Z,14.75
2022-09-14T02:17:26.074Z,17.00
2022-09-14T02:20:46.933Z,17.75
2022-09-14T02:23:49.550Z,15.50
2022-09-14T02:26:53.601Z,18.00
2022-09-14T02:29:56.080Z,18.00
2022-09-14T02:33:19.851Z,15.75
2022-09-14T02:36:53.273Z,17.00
2022-09-14T02:40:24.270Z,19.25
2022-09-14T02:43:35.505Z,18.00
2022-09-14T02:47:10.314Z,18.25
2022-09-14T02:50:28.437Z,17.25
2022-09-14T02:53:37.367Z,18.00
2022-09-14T02:56:39.685Z,18.25
2022-09-14T02:59:41.660Z,20.25
2022-09-14T03:02:43.851Z,18.75
2022-09-14T03:05:46.092Z,22.75
2022-09-14T03:08:49.130Z,20.00
2022-09-14T03:11:51.116Z,23.00
2022-09-14T03:14:53.426Z,19.75
2022-09-14T03:17:55.452Z,22.00
2022-09-14T03:21:04.944Z,20.50
2022-09-14T03:24:07.443Z,20.00
2022-09-14T03:27:09.617Z,22.00
2022-09-14T03:30:12.043Z,22.75
2022-09-14T03:33:15.506Z,21.50
2022-09-14T03:36:19.156Z,19.00
2022-09-14T03:39:21.696Z,24.75
2022-09-14T03:42:23.732Z,23.00
2022-09-14T03:45:25.917Z,23.00
2022-09-14T03:48:29.713Z,23.00
2022-09-14T03:51:34.039Z,20.00
2022-09-14T03:54:36.042Z,20.00
2022-09-14T03:57:38.473Z,22.50
2022-09-14T04:00:40.628Z,20.75
2022-09-14T04:03:43.199Z,21.50
2022-09-14T04:06:45.314Z,24.25
2022-09-14T04:09:47.508Z,22.00
2022-09-14T04:12:50.126Z,24.00
2022-09-14T04:15:59.708Z,23.00
2022-09-14T04:19:01.985Z,23.00
2022-09-14T04:22:05.194Z,20.25
2022-09-14T04:25:07.669Z,23.00
2022-09-14T04:28:20.115Z,21.25
2022-09-14T04:31:23.514Z,23.25
2022-09-14T04:34:25.891Z,23.25
2022-09-14T04:37:31.206Z,25.00
2022-09-14T04:40:34.010Z,23.50
2022-09-14T04:43:36.475Z,19.50
2022-09-14T04:46:46.039Z,25.00
2022-09-14T04:49:48.878Z,24.75
2022-09-14T04:52:51.069Z,24.75
2022-09-14T04:55:53.228Z,24.00
2022-09-14T04:58:58.627Z,21.75
2022-09-14T05:02:00.683Z,24.50
2022-09-14T05:05:02.939Z,25.25
2022-09-14T05:08:04.982Z,23.00
2022-09-14T05:11:08.474Z,23.25
2022-09-14T05:14:14.301Z,23.50
2022-09-14T05:17:16.774Z,20.75
2022-09-14T05:20:18.949Z,23.00
2022-09-14T05:23:21.446Z,23.00
2022-09-14T05:26:24.977Z,19.50
2022-09-14T05:29:27.324Z,22.50
2022-09-14T05:32:29.283Z,24.75
2022-09-14T05:35:31.471Z,23.00
2022-09-14T05:38:35.461Z,23.25
2022-09-14T05:41:37.962Z,25.00
2022-09-14T05:44:40.094Z,24.50
2022-09-14T05:47:42.328Z,24.50
2022-09-14T05:50:44.483Z,21.75
2022-09-14T05:53:57.048Z,23.00
2022-09-14T05:56:59.013Z,25.00
2022-09-14T06:00:01.514Z,25.00
2022-09-14T06:03:04.160Z,25.00
2022-09-14T06:06:08.205Z,24.75
2022-09-14T06:09:11.590Z,24.50
2022-09-14T06:12:14.744Z,24.00
2022-09-14T06:15:16.925Z,23.25
2022-09-14T06:18:19.185Z,25.75
2022-09-14T06:21:22.240Z,25.00
2022-09-14T06:24:24.641Z,25.00
2022-09-14T06:27:27.378Z,25.00
2022-09-14T06:30:33.615Z,23.00
2022-09-14T06:33:39.736Z,25.50
2022-09-14T06:36:44.836Z,24.50
2022-09-14T06:39:47.132Z,23.00
2022-09-14T06:42:49.643Z,24.00
2022-09-14T06:46:05.224Z,25.00
2022-09-14T06:49:11.450Z,25.00
2022-09-14T06:52:13.606Z,23.75
2022-09-14T06:55:16.046Z,23.75
2022-09-14T06:58:18.169Z,25.00
2022-09-14T07:01:21.495Z,25.00
2022-09-14T07:04:24.986Z,23.75
2022-09-14T07:07:27.314Z,23.25
2022-09-14T07:10:29.575Z,21.50
2022-09-14T07:13:32.511Z,22.00
2022-09-14T07:16:35.615Z,18.25
2022-09-14T07:19:37.879Z,18.00
2022-09-14T07:22:39.903Z,18.25
2022-09-14T07:25:42.400Z,16.25
2022-09-14T07:28:46.922Z,18.50
2022-09-14T07:31:52.110Z,17.00
2022-09-14T07:34:54.175Z,19.50
2022-09-14T07:37:56.722Z,19.25
2022-09-14T07:40:59.120Z,17.50
2022-09-14T07:44:03.437Z,16.00
2022-09-14T07:47:05.626Z,16.50
2022-09-14T07:50:08.323Z,16.75
2022-09-14T07:53:10.589Z,16.75
2022-09-14T07:56:13.801Z,15.25
2022-09-14T07:59:35.982Z,16.00
2022-09-14T08:02:38.689Z,16.75
2022-09-14T08:05:40.748Z,14.75
2022-09-14T08:08:50.813Z,15.00
2022-09-14T08:11:52.718Z,16.25
2022-09-14T08:14:54.971Z,15.25
2022-09-14T08:17:56.901Z,13.75
2022-09-14T08:21:07.323Z,13.25
2022-09-14T08:24:12.165Z,13.00
2022-09-14T08:27:17.073Z,14.00
2022-09-14T08:30:19.925Z,12.75
2022-09-14T08:33:22.169Z,12.75
2022-09-14T08:36:26.005Z,10.75
2022-09-14T08:39:28.306Z,12.75
2022-09-14T08:42:30.837Z,11.75
2022-09-14T08:45:33.219Z,7.50
2022-09-14T08:48:44.348Z,10.00
2022-09-14T08:51:46.643Z,10.25
2022-09-14T08:54:50.785Z,10.00
2022-09-14T08:58:13.961Z,10.25
2022-09-14T09:01:54.275Z,9.00
2022-09-14T09:05:41.098Z,9.25
2022-09-14T09:09:09.967Z,8.75
2022-09-14T09:12:40.647Z,9.00
2022-09-14T09:15:52.411Z,9.00
2022-09-14T09:19:01.709Z,7.75
2022-09-14T09:22:05.993Z,8.25
2022-09-14T09:25:25.185Z,6.50
2022-09-14T09:28:28.811Z,9.25
2022-09-14T09:31:36.037Z,8.75
2022-09-14T09:34:58.499Z,8.33
2022-09-14T09:38:19.167Z,7.33
2022-09-14T09:41:27.117Z,8.00
2022-09-14T09:44:29.542Z,6.33
2022-09-14T09:47:40.875Z,7.00
2022-09-14T09:51:04.396Z,7.00
2022-09-14T09:54:28.185Z,7.00
2022-09-14T09:57:37.225Z,8.33
2022-09-14T10:00:39.420Z,8.33
2022-09-14T10:03:41.790Z,6.00
2022-09-14T10:06:54.487Z,6.67
2022-09-14T10:10:01.109Z,7.00
2022-09-14T10:13:04.957Z,7.00
2022-09-14T10:16:08.155Z,7.00
2022-09-14T10:19:22.630Z,6.33
2022-09-14T10:22:30.281Z,6.67
2022-09-14T10:25:33.470Z,7.00
2022-09-14T10:28:36.242Z,7.00
2022-09-14T10:31:39.569Z,7.00
2022-09-14T10:34:42.506Z,7.00
2022-09-14T10:38:23.415Z,6.00
2022-09-14T10:41:39.245Z,6.00
2022-09-14T10:45:00.061Z,5.00
2022-09-14T10:48:31.667Z,5.00
2022-09-14T10:51:38.292Z,6.00
2022-09-14T10:55:18.849Z,6.00
2022-09-14T10:58:58.436Z,4.33
2022-09-14T11:02:38.575Z,5.00
2022-09-14T11:05:48.174Z,3.00
2022-09-14T11:09:00.858Z,3.00
2022-09-14T11:12:18.523Z,2.00
2022-09-14T11:15:23.510Z,3.00
2022-09-14T11:18:58.369Z,3.00
2022-09-14T11:22:17.843Z,2.00
2022-09-14T11:25:27.418Z,2.00
2022-09-14T11:28:35.366Z,3.33
2022-09-14T11:32:10.115Z,3.00
2022-09-14T11:35:29.808Z,3.67
2022-09-14T11:38:36.493Z,4.00
2022-09-14T11:41:47.751Z,4.00
2022-09-14T11:44:57.882Z,4.00
2022-09-14T11:48:52.996Z,3.00
2022-09-14T11:52:01.251Z,2.67
2022-09-14T11:55:10.055Z,1.00
2022-09-14T11:58:23.861Z,3.67
2022-09-14T12:01:44.919Z,2.00
2022-09-14T12:05:05.876Z,2.00
2022-09-14T12:08:28.786Z,2.33
2022-09-14T12:11:33.208Z,3.33
2022-09-14T12:14:36.682Z,2.67
2022-09-14T12:17:40.533Z,3.33
2022-09-14T12:20:52.736Z,3.00
2022-09-14T12:23:57.906Z,3.00
2022-09-14T12:27:15.278Z,2.00
2022-09-14T12:30:55.831Z,2.67
2022-09-14T12:34:17.060Z,3.67
2022-09-14T12:37:32.424Z,3.33
2022-09-14T12:40:37.469Z,3.00
2022-09-14T12:43:39.423Z,3.00
2022-09-14T12:46:41.925Z,4.00
2022-09-14T12:49:44.223Z,4.00
2022-09-14T12:53:02.916Z,3.00
2022-09-14T12:56:06.999Z,3.00
2022-09-14T12:59:38.582Z,3.00
2022-09-14T13:03:02.460Z,3.00
2022-09-14T13:06:05.806Z,3.00
2022-09-14T13:09:18.580Z,3.33
2022-09-14T13:12:42.395Z,3.00
2022-09-14T13:16:02.473Z,1.00
2022-09-14T13:19:16.783Z,4.00
2022-09-14T13:22:21.246Z,3.00
2022-09-14T13:25:37.720Z,3.00
2022-09-14T13:28:44.164Z,3.33
2022-09-14T13:31:47.136Z,3.00
2022-09-14T13:34:49.270Z,3.00
2022-09-14T13:37:51.558Z,3.00
2022-09-14T13:40:56.007Z,4.00
2022-09-14T13:43:58.920Z,3.67
2022-09-14T13:47:04.284Z,2.67
2022-09-14T13:50:07.236Z,3.00
2022-09-14T13:53:38.124Z,3.00
2022-09-14T13:56:40.485Z,2.67
2022-09-14T14:00:04.494Z,2.00
2022-09-14T14:03:06.972Z,2.00
2022-09-14T14:06:29.777Z,3.00
2022-09-14T14:09:54.447Z,4.00
2022-09-14T14:12:57.272Z,3.00
2022-09-14T14:16:19.545Z,2.67
2022-09-14T14:19:33.662Z,2.00
2022-09-14T14:22:38.787Z,3.00
2022-09-14T14:25:46.076Z,3.00
2022-09-14T14:28:48.821Z,2.33
2022-09-14T14:31:51.117Z,2.00
2022-09-14T14:34:53.869Z,2.00
2022-09-14T14:37:56.886Z,2.00
2022-09-14T14:40:59.341Z,2.00
2022-09-14T14:44:01.586Z,2.00
2022-09-14T14:47:05.607Z,2.00
2022-09-14T14:50:23.928Z,3.00
2022-09-14T14:53:26.320Z,2.33
2022-09-14T14:56:28.548Z,3.00
2022-09-14T14:59:31.212Z,2.00
2022-09-14T15:02:33.257Z,2.00
2022-09-14T15:05:40.132Z,3.00
2022-09-14T15:08:42.402Z,3.00
2022-09-14T15:11:45.510Z,3.00
2022-09-14T15:14:47.573Z,2.00
2022-09-14T15:17:50.551Z,2.00
2022-09-14T15:20:53.267Z,2.67
2022-09-14T15:23:55.601Z,2.67
2022-09-14T15:26:58.786Z,3.00
2022-09-14T15:30:01.260Z,2.33
2022-09-14T15:33:03.362Z,3.00
2022-09-14T15:36:05.766Z,3.00
2022-09-14T15:39:09.788Z,2.33
2022-09-14T15:42:12.152Z,2.00
2022-09-14T15:45:14.547Z,1.33
2022-09-14T15:48:18.846Z,2.67
2022-09-14T15:51:21.819Z,1.33
2022-09-14T15:54:27.448Z,2.33
2022-09-14T15:57:29.514Z,3.00
2022-09-14T16:00:31.930Z,3.00
2022-09-14T16:03:34.489Z,3.00
2022-09-14T16:06:36.727Z,4.00
2022-09-14T16:09:40.068Z,2.00
2022-09-14T16:12:42.812Z,3.00
2022-09-14T16:15:45.984Z,3.00
2022-09-14T16:18:50.164Z,3.67
2022-09-14T16:21:53.799Z,3.00
2022-09-14T16:24:56.176Z,3.00
2022-09-14T16:27:58.413Z,2.00
2022-09-14T16:31:20.332Z,2.00
2022-09-14T16:34:31.658Z,3.00
2022-09-14T16:37:34.003Z,2.00
2022-09-14T16:40:39.001Z,4.00
2022-09-14T16:43:57.705Z,2.00
2022-09-14T16:46:59.899Z,3.00
2022-09-14T16:50:02.257Z,3.00
2022-09-14T16:53:04.394Z,3.00
2022-09-14T16:56:16.756Z,4.75
2022-09-14T16:59:20.665Z,4.00
2022-09-14T17:02:28.060Z,4.75
2022-09-14T17:05:35.069Z,4.00
2022-09-14T17:08:43.038Z,5.00
2022-09-14T17:11:46.182Z,4.00
2022-09-14T17:14:48.545Z,3.00
2022-09-14T17:17:51.223Z,4.00
2022-09-14T17:20:58.683Z,5.00
2022-09-14T17:24:02.145Z,5.00
2022-09-14T17:27:04.538Z,5.00
2022-09-14T17:30:07.545Z,5.00
2022-09-14T17:33:10.514Z,5.75
2022-09-14T17:36:15.437Z,5.75
2022-09-14T17:39:18.963Z,4.50
2022-09-14T17:42:21.248Z,6.00
2022-09-14T17:45:23.796Z,4.25
2022-09-14T17:48:27.826Z,4.25
2022-09-14T17:51:31.457Z,5.00
2022-09-14T17:54:33.676Z,5.50
2022-09-14T17:57:36.442Z,5.75
2022-09-14T18:00:38.957Z,5.25
2022-09-14T18:03:43.481Z,3.75
2022-09-14T18:06:48.282Z,4.00
2022-09-14T18:09:51.515Z,5.00
2022-09-14T18:12:53.677Z,5.00
2022-09-14T18:15:56.774Z,6.00
2022-09-14T18:18:59.343Z,5.25
2022-09-14T18:22:06.171Z,5.75
2022-09-14T18:25:09.682Z,5.00
2022-09-14T18:28:12.183Z,4.00
2022-09-14T18:31:23.857Z,6.00
2022-09-14T18:34:33.193Z,4.25
2022-09-14T18:37:35.356Z,5.50
2022-09-14T18:40:40.307Z,5.00
2022-09-14T18:43:50.177Z,4.00
2022-09-14T18:46:52.713Z,4.75
2022-09-14T18:49:56.225Z,4.50
2022-09-14T18:52:58.704Z,4.25
2022-09-14T18:56:05.677Z,4.00
2022-09-14T18:59:12.217Z,4.75
2022-09-14T19:02:14.474Z,3.75
2022-09-14T19:05:17.965Z,5.00
2022-09-14T19:08:20.188Z,5.00
2022-09-14T19:11:24.667Z,5.00
2022-09-14T19:14:27.003Z,4.25
2022-09-14T19:17:29.836Z,5.00
2022-09-14T19:20:55.157Z,5.00
2022-09-14T19:24:00.991Z,3.75
2022-09-14T19:27:03.084Z,5.00
2022-09-14T19:30:06.865Z,5.25
2022-09-14T19:33:08.957Z,5.25
2022-09-14T19:36:19.934Z,5.00
2022-09-14T19:39:23.765Z,5.00
2022-09-14T19:42:26.111Z,6.00
2022-09-14T19:45:28.137Z,5.75
2022-09-14T19:48:30.901Z,6.00
2022-09-14T19:51:33.106Z,5.75
2022-09-14T19:54:35.540Z,6.25
2022-09-14T19:57:37.690Z,4.25
2022-09-14T20:00:40.345Z,6.50
2022-09-14T20:03:44.218Z,5.50
2022-09-14T20:06:47.677Z,7.50
2022-09-14T20:09:49.924Z,6.75
2022-09-14T20:12:53.372Z,4.50
2022-09-14T20:15:55.537Z,4.50
2022-09-14T20:18:59.741Z,8.00
2022-09-14T20:22:01.928Z,6.25
2022-09-14T20:25:05.441Z,6.25
2022-09-14T20:28:07.770Z,6.25
2022-09-14T20:31:13.264Z,7.00
2022-09-14T20:34:18.195Z,7.00
2022-09-14T20:37:20.469Z,8.50
2022-09-14T20:40:22.616Z,8.00
2022-09-14T20:43:25.658Z,8.00
2022-09-14T20:46:34.963Z,7.00
2022-09-14T20:49:37.374Z,8.00
2022-09-14T20:52:39.346Z,8.00
2022-09-14T20:55:41.590Z,8.00
2022-09-14T20:58:44.654Z,5.25
2022-09-14T21:01:49.599Z,7.25
2022-09-14T21:04:51.737Z,8.00
2022-09-14T21:07:56.420Z,7.50
2022-09-14T21:11:06.281Z,8.25
2022-09-14T21:14:08.744Z,8.75
2022-09-14T21:17:10.872Z,6.75
2022-09-14T21:20:13.288Z,8.00
2022-09-14T21:23:15.339Z,8.25
2022-09-14T21:26:19.305Z,9.00
2022-09-14T21:29:23.994Z,8.00
2022-09-14T21:32:26.423Z,9.00
2022-09-14T21:35:33.422Z,9.25
2022-09-14T21:38:36.549Z,8.50
2022-09-14T21:41:39.871Z,8.75
2022-09-14T21:44:42.073Z,9.00
2022-09-14T21:47:44.181Z,10.50
2022-09-14T21:50:47.506Z,10.25
2022-09-14T21:53:54.970Z,8.75
2022-09-14T21:56:57.318Z,10.00
2022-09-14T21:59:59.362Z,9.50
2022-09-14T22:03:01.712Z,11.25
2022-09-14T22:06:07.507Z,11.75
2022-09-14T22:09:09.781Z,12.50
2022-09-14T22:12:11.814Z,10.75
2022-09-14T22:15:14.774Z,8.00
2022-09-14T22:18:16.889Z,11.00
2022-09-14T22:21:19.945Z,8.50
2022-09-14T22:24:25.896Z,9.00
2022-09-14T22:27:28.259Z,11.00
2022-09-14T22:30:30.284Z,10.00
2022-09-14T22:33:33.291Z,11.25
2022-09-14T22:36:35.790Z,10.25
2022-09-14T22:39:38.178Z,10.25
2022-09-14T22:42:41.028Z,10.00
2022-09-14T22:45:44.053Z,10.50
2022-09-14T22:48:46.665Z,7.00
2022-09-14T22:51:49.033Z,13.50
2022-09-14T22:54:51.055Z,14.00
2022-09-14T22:57:53.316Z,14.25
2022-09-14T23:00:55.367Z,12.00
2022-09-14T23:04:04.759Z,11.00
2022-09-14T23:07:08.312Z,13.00
2022-09-14T23:10:10.795Z,15.00
2022-09-14T23:13:12.854Z,14.75
2022-09-14T23:16:19.416Z,13.00
2022-09-14T23:19:22.111Z,14.50
2022-09-14T23:22:24.423Z,12.25
2022-09-14T23:25:26.517Z,14.00
2022-09-14T23:28:28.815Z,13.00
2022-09-14T23:31:32.273Z,11.00
2022-09-14T23:34:34.623Z,13.25
2022-09-14T23:37:36.583Z,13.50
2022-09-14T23:40:38.832Z,12.75
2022-09-14T23:43:41.503Z,13.00
2022-09-14T23:46:43.760Z,15.00
2022-09-14T23:49:45.757Z,14.50
2022-09-14T23:52:48.112Z,14.00
2022-09-14T23:55:50.052Z,13.00
2022-09-14T23:58:52.501Z,11.00
